createdAt,value
2018-04-14T00:00:25.238Z,941.95
2018-04-14T00:01:32.749Z,941.95
2018-04-14T00:02:40.801Z,941.93
2018-04-14T00:03:48.224Z,941.89
2018-04-14T00:04:56.292Z,941.94
2018-04-14T00:06:04.477Z,941.92
2018-04-14T00:07:12.465Z,941.92
2018-04-14T00:08:20.457Z,941.90
2018-04-14T00:09:28.513Z,941.95
2018-04-14T00:10:36.578Z,941.91
2018-04-14T00:11:44.680Z,941.91
2018-04-14T00:12:53.317Z,941.96
2018-04-14T00:14:00.734Z,941.94
2018-04-14T00:15:08.808Z,941.95
2018-04-14T00:16:16.992Z,941.94
2018-04-14T00:17:24.963Z,941.95
2018-04-14T00:18:33.638Z,941.93
2018-04-14T00:19:41.014Z,941.93
2018-04-14T00:20:49.089Z,941.93
2018-04-14T00:21:57.149Z,941.93
2018-04-14T00:23:05.324Z,941.94
2018-04-14T00:24:13.251Z,941.95
2018-04-14T00:25:21.288Z,941.96
2018-04-14T00:26:29.379Z,941.93
2018-04-14T00:27:38.325Z,941.94
2018-04-14T00:28:46.148Z,941.92
2018-04-14T00:29:54.174Z,941.90
2018-04-14T00:31:02.071Z,941.90
2018-04-14T00:32:10.687Z,941.95
2018-04-14T00:33:18.357Z,941.92
2018-04-14T00:34:26.459Z,941.96
2018-04-14T00:35:34.320Z,941.94
2018-04-14T00:36:42.456Z,941.96
2018-04-14T00:37:51.854Z,941.95
2018-04-14T00:38:58.864Z,941.96
2018-04-14T00:40:06.673Z,941.96
2018-04-14T00:41:14.776Z,941.98
2018-04-14T00:42:22.752Z,941.98
2018-04-14T00:43:31.298Z,941.98
2018-04-14T00:44:38.807Z,942.00
2018-04-14T00:45:46.895Z,942.06
2018-04-14T00:46:55.046Z,942.03
2018-04-14T00:48:02.929Z,942.04
2018-04-14T00:49:11.657Z,942.02
2018-04-14T00:50:19.172Z,942.01
2018-04-14T00:51:26.623Z,942.00
2018-04-14T00:52:34.689Z,941.96
2018-04-14T00:53:42.747Z,941.98
2018-04-14T00:54:50.907Z,941.97
2018-04-14T00:55:58.841Z,941.95
2018-04-14T00:57:06.903Z,942.00
2018-04-14T00:58:14.960Z,941.96
2018-04-14T00:59:23.014Z,941.98
2018-04-14T01:00:31.094Z,941.97
2018-04-14T01:01:39.115Z,942.01
2018-04-14T01:02:47.175Z,941.94
2018-04-14T01:03:55.247Z,941.98
2018-04-14T01:05:03.307Z,942.02
2018-04-14T01:06:11.443Z,942.01
2018-04-14T01:07:19.406Z,942.00
2018-04-14T01:08:27.458Z,941.99
2018-04-14T01:09:35.526Z,941.99
2018-04-14T01:10:43.639Z,941.98
2018-04-14T01:11:51.753Z,942.00
2018-04-14T01:12:59.689Z,942.04
2018-04-14T01:14:07.743Z,942.06
2018-04-14T01:15:15.810Z,942.06
2018-04-14T01:16:23.875Z,942.05
2018-04-14T01:17:31.978Z,942.09
2018-04-14T01:18:39.981Z,942.05
2018-04-14T01:19:48.060Z,942.10
2018-04-14T01:20:56.090Z,942.11
2018-04-14T01:22:04.197Z,942.09
2018-04-14T01:23:12.202Z,942.11
2018-04-14T01:24:20.403Z,942.09
2018-04-14T01:25:28.323Z,942.09
2018-04-14T01:26:36.477Z,942.10
2018-04-14T01:27:44.527Z,942.10
2018-04-14T01:28:52.494Z,942.16
2018-04-14T01:30:00.541Z,942.14
2018-04-14T01:31:08.613Z,942.13
2018-04-14T01:32:16.669Z,942.12
2018-04-14T01:33:24.767Z,942.16
2018-04-14T01:34:32.764Z,942.18
2018-04-14T01:35:40.805Z,942.16
2018-04-14T01:36:48.888Z,942.19
2018-04-14T01:37:56.931Z,942.18
2018-04-14T01:39:05.087Z,942.20
2018-04-14T01:40:13.052Z,942.20
2018-04-14T01:41:21.076Z,942.17
2018-04-14T01:42:29.219Z,942.19
2018-04-14T01:43:37.216Z,942.18
2018-04-14T01:44:45.760Z,942.17
2018-04-14T01:45:53.325Z,942.16
2018-04-14T01:47:01.403Z,942.14
2018-04-14T01:48:09.449Z,942.17
2018-04-14T01:49:17.500Z,942.19
2018-04-14T01:50:25.611Z,942.18
2018-04-14T01:51:33.609Z,942.14
2018-04-14T01:52:41.635Z,942.14
2018-04-14T01:53:49.706Z,942.17
2018-04-14T01:54:57.775Z,942.17
2018-04-14T01:56:05.961Z,942.15
2018-04-14T01:57:14.000Z,942.15
2018-04-14T01:58:21.952Z,942.14
2018-04-14T01:59:30.004Z,942.13
2018-04-14T02:00:38.061Z,942.14
2018-04-14T02:01:46.218Z,942.14
2018-04-14T02:02:54.173Z,942.13
2018-04-14T02:04:02.218Z,942.13
2018-04-14T02:05:10.291Z,942.15
2018-04-14T02:06:18.337Z,942.09
2018-04-14T02:07:26.456Z,942.10
2018-04-14T02:08:34.458Z,942.09
2018-04-14T02:09:42.509Z,942.12
2018-04-14T02:10:50.563Z,942.06
2018-04-14T02:11:58.624Z,942.07
2018-04-14T02:13:06.712Z,942.08
2018-04-14T02:14:14.739Z,942.02
2018-04-14T02:15:22.788Z,942.06
2018-04-14T02:16:30.828Z,942.02
2018-04-14T02:17:39.009Z,942.02
2018-04-14T02:18:46.956Z,942.01
2018-04-14T02:19:55.018Z,941.95
2018-04-14T02:21:03.079Z,941.99
2018-04-14T02:22:11.105Z,941.96
2018-04-14T02:23:19.285Z,941.97
2018-04-14T02:24:27.234Z,942.01
2018-04-14T02:25:35.279Z,941.97
2018-04-14T02:26:43.348Z,941.94
2018-04-14T02:27:51.388Z,941.97
2018-04-14T02:28:59.589Z,941.98
2018-04-14T02:30:07.523Z,942.00
2018-04-14T02:31:15.576Z,942.00
2018-04-14T02:32:23.776Z,942.02
2018-04-14T02:33:31.677Z,942.03
2018-04-14T02:34:39.860Z,942.01
2018-04-14T02:35:47.800Z,942.03
2018-04-14T02:36:55.836Z,942.05
2018-04-14T02:38:03.917Z,942.03
2018-04-14T02:39:11.957Z,942.05
2018-04-14T02:40:20.071Z,942.04
2018-04-14T02:41:28.067Z,942.03
2018-04-14T02:42:36.125Z,942.06
2018-04-14T02:43:44.187Z,942.05
2018-04-14T02:44:52.362Z,942.04
2018-04-14T02:46:00.480Z,942.10
2018-04-14T02:47:08.373Z,942.08
2018-04-14T02:48:16.422Z,942.08
2018-04-14T02:49:24.459Z,942.06
2018-04-14T02:50:32.523Z,942.06
2018-04-14T02:51:40.622Z,942.04
2018-04-14T02:52:48.638Z,942.05
2018-04-14T02:53:56.699Z,942.01
2018-04-14T02:55:04.751Z,942.01
2018-04-14T02:56:12.817Z,942.02
2018-04-14T02:57:20.886Z,942.03
2018-04-14T02:58:28.913Z,941.99
2018-04-14T02:59:36.983Z,942.01
2018-04-14T03:00:45.076Z,941.93
2018-04-14T03:01:53.090Z,941.97
2018-04-14T03:03:01.164Z,941.95
2018-04-14T03:04:09.189Z,941.98
2018-04-14T03:05:17.225Z,941.97
2018-04-14T03:06:25.311Z,941.98
2018-04-14T03:07:33.409Z,942.03
2018-04-14T03:08:41.385Z,942.03
2018-04-14T03:09:49.471Z,942.07
2018-04-14T03:10:57.541Z,942.09
2018-04-14T03:12:05.643Z,942.08
2018-04-14T03:13:13.645Z,942.07
2018-04-14T03:14:21.676Z,942.06
2018-04-14T03:15:29.740Z,942.06
2018-04-14T03:16:37.855Z,942.06
2018-04-14T03:17:45.976Z,942.09
2018-04-14T03:18:53.913Z,942.07
2018-04-14T03:20:01.971Z,942.09
2018-04-14T03:21:10.043Z,942.10
2018-04-14T03:22:18.084Z,942.11
2018-04-14T03:23:26.261Z,942.11
2018-04-14T03:24:34.199Z,942.10
2018-04-14T03:25:42.267Z,942.05
2018-04-14T03:26:50.315Z,942.07
2018-04-14T03:27:58.358Z,942.08
2018-04-14T03:29:06.456Z,942.10
2018-04-14T03:30:14.481Z,942.13
2018-04-14T03:31:22.543Z,942.13
2018-04-14T03:32:30.615Z,942.18
2018-04-14T03:33:38.636Z,942.17
2018-04-14T03:34:46.754Z,942.16
2018-04-14T03:35:54.763Z,942.16
2018-04-14T03:37:02.814Z,942.22
2018-04-14T03:38:10.863Z,942.24
2018-04-14T03:39:18.931Z,942.23
2018-04-14T03:40:27.090Z,942.20
2018-04-14T03:41:35.046Z,942.22
2018-04-14T03:42:43.082Z,942.26
2018-04-14T03:43:51.124Z,942.21
2018-04-14T03:44:59.200Z,942.27
2018-04-14T03:46:07.509Z,942.25
2018-04-14T03:47:15.373Z,942.30
2018-04-14T03:48:23.365Z,942.26
2018-04-14T03:49:31.416Z,942.27
2018-04-14T03:50:39.493Z,942.35
2018-04-14T03:51:47.595Z,942.30
2018-04-14T03:52:55.611Z,942.31
2018-04-14T03:54:03.653Z,942.30
2018-04-14T03:55:11.678Z,942.30
2018-04-14T03:56:19.771Z,942.32
2018-04-14T03:57:27.865Z,942.29
2018-04-14T03:58:35.870Z,942.30
2018-04-14T03:59:43.916Z,942.24
2018-04-14T04:00:51.990Z,942.27
2018-04-14T04:02:00.048Z,942.33
2018-04-14T04:03:08.108Z,942.32
2018-04-14T04:04:16.163Z,942.32
2018-04-14T04:05:24.217Z,942.29
2018-04-14T04:06:32.266Z,942.25
2018-04-14T04:07:40.361Z,942.28
2018-04-14T04:08:48.368Z,942.25
2018-04-14T04:09:56.431Z,942.27
2018-04-14T04:11:04.487Z,942.29
2018-04-14T04:12:12.592Z,942.30
2018-04-14T04:13:20.594Z,942.33
2018-04-14T04:14:28.649Z,942.35
2018-04-14T04:15:36.734Z,942.36
2018-04-14T04:16:44.764Z,942.39
2018-04-14T04:17:52.930Z,942.39
2018-04-14T04:19:00.863Z,942.41
2018-04-14T04:20:08.947Z,942.39
2018-04-14T04:21:17.006Z,942.44
2018-04-14T04:22:25.100Z,942.45
2018-04-14T04:23:33.105Z,942.46
2018-04-14T04:24:41.120Z,942.50
2018-04-14T04:25:49.206Z,942.55
2018-04-14T04:26:57.275Z,942.61
2018-04-14T04:28:05.430Z,942.60
2018-04-14T04:29:13.395Z,942.64
2018-04-14T04:30:21.452Z,942.66
2018-04-14T04:31:29.502Z,942.65
2018-04-14T04:32:37.606Z,942.68
2018-04-14T04:33:45.730Z,942.72
2018-04-14T04:34:54.220Z,942.71
2018-04-14T04:36:01.693Z,942.72
2018-04-14T04:37:09.774Z,942.73
2018-04-14T04:38:17.812Z,942.76
2018-04-14T04:39:25.962Z,942.79
2018-04-14T04:40:33.943Z,942.81
2018-04-14T04:41:41.983Z,942.84
2018-04-14T04:42:50.058Z,942.83
2018-04-14T04:43:58.103Z,942.85
2018-04-14T04:45:06.268Z,942.87
2018-04-14T04:46:14.213Z,942.91
2018-04-14T04:47:22.272Z,942.90
2018-04-14T04:48:30.366Z,942.90
2018-04-14T04:49:38.371Z,942.95
2018-04-14T04:50:46.550Z,942.95
2018-04-14T04:51:54.772Z,942.95
2018-04-14T04:53:02.545Z,942.98
2018-04-14T04:54:11.259Z,943.01
2018-04-14T04:55:19.184Z,943.03
2018-04-14T04:56:27.552Z,943.03
2018-04-14T04:57:35.410Z,943.04
2018-04-14T04:58:43.538Z,943.05
2018-04-14T04:59:51.515Z,943.07
2018-04-14T05:00:59.503Z,943.08
2018-04-14T05:02:08.129Z,943.06
2018-04-14T05:03:15.698Z,943.06
2018-04-14T05:04:23.837Z,943.09
2018-04-14T05:05:31.756Z,943.04
2018-04-14T05:06:39.862Z,943.08
2018-04-14T05:07:48.028Z,943.07
2018-04-14T05:08:56.019Z,943.06
2018-04-14T05:10:04.045Z,943.04
2018-04-14T05:11:12.091Z,943.04
2018-04-14T05:12:20.110Z,943.08
2018-04-14T05:13:28.673Z,943.07
2018-04-14T05:14:36.286Z,943.05
2018-04-14T05:15:44.304Z,943.11
2018-04-14T05:16:52.356Z,943.10
2018-04-14T05:18:00.446Z,943.14
2018-04-14T05:19:08.736Z,943.13
2018-04-14T05:20:17.006Z,943.13
2018-04-14T05:21:24.617Z,943.14
2018-04-14T05:22:32.606Z,943.16
2018-04-14T05:23:40.718Z,943.17
2018-04-14T05:24:49.217Z,943.17
2018-04-14T05:25:56.695Z,943.21
2018-04-14T05:27:04.891Z,943.22
2018-04-14T05:28:12.581Z,943.21
2018-04-14T05:29:20.964Z,943.20
2018-04-14T05:30:29.544Z,943.19
2018-04-14T05:31:37.153Z,943.17
2018-04-14T05:32:45.064Z,943.17
2018-04-14T05:33:53.200Z,943.20
2018-04-14T05:35:01.301Z,943.18
2018-04-14T05:36:09.726Z,943.16
2018-04-14T05:37:17.220Z,943.18
2018-04-14T05:38:25.426Z,943.23
2018-04-14T05:39:33.362Z,943.28
2018-04-14T05:40:41.486Z,943.30
2018-04-14T05:41:50.738Z,943.29
2018-04-14T05:42:57.637Z,943.41
2018-04-14T05:44:05.715Z,943.41
2018-04-14T05:45:13.791Z,943.39
2018-04-14T05:46:21.665Z,943.31
2018-04-14T05:47:30.047Z,943.29
2018-04-14T05:48:37.809Z,943.37
2018-04-14T05:49:45.962Z,943.38
2018-04-14T05:50:53.998Z,943.44
2018-04-14T05:52:02.642Z,943.44
2018-04-14T05:53:10.170Z,943.41
2018-04-14T05:54:18.194Z,943.46
2018-04-14T05:55:26.159Z,943.48
2018-04-14T05:56:34.291Z,943.50
2018-04-14T05:57:42.736Z,943.54
2018-04-14T05:58:50.354Z,943.60
2018-04-14T05:59:58.475Z,943.60
2018-04-14T06:01:06.503Z,943.64
2018-04-14T06:02:14.886Z,943.63
2018-04-14T06:03:22.750Z,943.69
2018-04-14T06:04:30.735Z,943.72
2018-04-14T06:05:38.508Z,943.77
2018-04-14T06:06:46.859Z,943.75
2018-04-14T06:07:55.366Z,943.73
2018-04-14T06:09:02.789Z,943.81
2018-04-14T06:10:11.004Z,943.89
2018-04-14T06:11:19.113Z,943.82
2018-04-14T06:12:27.060Z,943.83
2018-04-14T06:13:35.696Z,943.81
2018-04-14T06:14:44.534Z,943.79
2018-04-14T06:15:51.264Z,943.87
2018-04-14T06:16:59.296Z,943.90
2018-04-14T06:18:07.360Z,943.85
2018-04-14T06:19:16.046Z,943.85
2018-04-14T06:20:23.616Z,943.94
2018-04-14T06:21:31.608Z,943.87
2018-04-14T06:22:39.917Z,943.80
2018-04-14T06:23:47.729Z,943.80
2018-04-14T06:24:55.974Z,943.83
2018-04-14T06:26:03.843Z,943.90
2018-04-14T06:27:11.835Z,943.98
2018-04-14T06:28:19.987Z,944.01
2018-04-14T06:29:28.029Z,943.99
2018-04-14T06:30:36.337Z,943.98
2018-04-14T06:31:44.160Z,944.16
2018-04-14T06:32:52.237Z,944.10
2018-04-14T06:34:00.270Z,944.17
2018-04-14T06:35:08.232Z,944.17
2018-04-14T06:36:16.919Z,944.16
2018-04-14T06:37:24.709Z,944.29
2018-04-14T06:38:32.480Z,944.28
2018-04-14T06:39:40.644Z,944.16
2018-04-14T06:40:48.679Z,944.15
2018-04-14T06:41:56.992Z,944.18
2018-04-14T06:43:04.685Z,944.17
2018-04-14T06:44:12.765Z,944.16
2018-04-14T06:45:20.957Z,944.18
2018-04-14T06:46:28.970Z,944.22
2018-04-14T06:47:37.331Z,944.32
2018-04-14T06:48:45.963Z,944.31
2018-04-14T06:49:53.207Z,944.21
2018-04-14T06:51:01.175Z,944.13
2018-04-14T06:52:09.798Z,944.23
2018-04-14T06:53:17.816Z,944.27
2018-04-14T06:54:25.366Z,944.24
2018-04-14T06:55:33.363Z,944.28
2018-04-14T06:56:41.481Z,944.23
2018-04-14T06:57:49.057Z,944.27
2018-04-14T06:58:57.067Z,944.44
2018-04-14T07:00:05.152Z,944.47
2018-04-14T07:01:13.186Z,944.50
2018-04-14T07:02:21.272Z,944.48
2018-04-14T07:03:29.316Z,944.44
2018-04-14T07:04:37.373Z,944.48
2018-04-14T07:05:45.431Z,944.52
2018-04-14T07:06:53.500Z,944.44
2018-04-14T07:08:01.655Z,944.42
2018-04-14T07:09:09.699Z,944.46
2018-04-14T07:10:17.851Z,944.47
2018-04-14T07:11:25.775Z,944.44
2018-04-14T07:12:33.836Z,944.47
2018-04-14T07:13:41.938Z,944.39
2018-04-14T07:14:49.950Z,944.35
2018-04-14T07:15:58.041Z,944.37
2018-04-14T07:17:06.093Z,944.34
2018-04-14T07:18:14.151Z,944.32
2018-04-14T07:19:22.322Z,944.48
2018-04-14T07:20:30.309Z,944.57
2018-04-14T07:21:38.339Z,944.48
2018-04-14T07:22:46.415Z,944.42
2018-04-14T07:23:54.487Z,944.43
2018-04-14T07:25:02.664Z,944.52
2018-04-14T07:26:10.627Z,944.50
2018-04-14T07:27:18.668Z,944.52
2018-04-14T07:28:26.742Z,944.57
2018-04-14T07:29:34.795Z,944.57
2018-04-14T07:30:42.974Z,944.70
2018-04-14T07:31:50.913Z,944.92
2018-04-14T07:32:58.998Z,944.88
2018-04-14T07:34:07.058Z,944.70
2018-04-14T07:35:15.127Z,944.84
2018-04-14T07:36:23.248Z,944.98
2018-04-14T07:37:31.249Z,945.03
2018-04-14T07:38:39.323Z,945.16
2018-04-14T07:39:47.413Z,945.59
2018-04-14T07:40:55.575Z,945.81
2018-04-14T07:42:03.563Z,945.52
2018-04-14T07:43:11.576Z,945.57
2018-04-14T07:44:19.658Z,946.22
2018-04-14T07:45:27.730Z,946.24
2018-04-14T07:46:35.772Z,945.87
2018-04-14T07:47:43.899Z,946.19
2018-04-14T07:48:51.920Z,946.47
2018-04-14T07:50:00.004Z,946.91
2018-04-14T07:51:08.054Z,946.82
2018-04-14T07:52:16.165Z,946.84
2018-04-14T07:53:24.177Z,946.57
2018-04-14T07:54:32.253Z,947.38
2018-04-14T07:55:40.320Z,947.87
2018-04-14T07:56:48.505Z,947.90
2018-04-14T07:57:56.495Z,947.85
2018-04-14T07:59:04.518Z,948.03
2018-04-14T08:00:12.599Z,948.07
2018-04-14T08:01:20.665Z,948.42
2018-04-14T08:02:28.727Z,947.32
2018-04-14T08:03:36.904Z,947.06
2018-04-14T08:04:44.861Z,947.79
2018-04-14T08:05:52.944Z,947.97
2018-04-14T08:07:00.996Z,947.69
2018-04-14T08:08:09.079Z,947.46
2018-04-14T08:09:17.246Z,948.26
2018-04-14T08:10:25.202Z,947.77
2018-04-14T08:11:33.313Z,946.97
2018-04-14T08:12:41.378Z,947.37
2018-04-14T08:13:49.418Z,947.58
2018-04-14T08:14:57.545Z,948.83
2018-04-14T08:16:05.560Z,948.59
2018-04-14T08:17:13.622Z,948.76
2018-04-14T08:18:21.695Z,950.17
2018-04-14T08:19:29.771Z,950.82
2018-04-14T08:20:37.946Z,950.47
2018-04-14T08:21:45.902Z,952.39
2018-04-14T08:22:53.977Z,952.84
2018-04-14T08:24:02.184Z,952.02
2018-04-14T08:25:10.126Z,951.29
2018-04-14T08:26:18.247Z,950.51
2018-04-14T08:27:26.317Z,949.50
2018-04-14T08:28:34.324Z,952.53
2018-04-14T08:29:42.398Z,953.60
2018-04-14T08:30:50.465Z,955.50
2018-04-14T08:31:58.588Z,955.74
2018-04-14T08:33:06.607Z,951.81
2018-04-14T08:34:15.402Z,950.80
2018-04-14T08:35:23.347Z,953.16
2018-04-14T08:36:31.349Z,955.25
2018-04-14T08:37:38.953Z,956.19
2018-04-14T08:38:46.980Z,955.84
2018-04-14T08:39:55.036Z,953.65
2018-04-14T08:41:03.113Z,953.22
2018-04-14T08:42:11.291Z,953.29
2018-04-14T08:43:19.280Z,953.55
2018-04-14T08:44:27.327Z,952.96
2018-04-14T08:45:35.420Z,953.55
2018-04-14T08:46:43.474Z,954.19
2018-04-14T08:47:51.566Z,955.13
2018-04-14T08:48:59.605Z,955.59
2018-04-14T08:50:07.675Z,955.33
2018-04-14T08:51:15.746Z,952.52
2018-04-14T08:52:23.937Z,947.45
2018-04-14T08:53:31.888Z,946.02
2018-04-14T08:54:39.965Z,945.65
2018-04-14T08:55:48.040Z,945.55
2018-04-14T08:56:56.101Z,945.44
2018-04-14T08:58:04.291Z,945.33
2018-04-14T08:59:12.240Z,945.24
2018-04-14T09:00:20.312Z,945.16
2018-04-14T09:01:28.403Z,945.10
2018-04-14T09:02:36.467Z,945.02
2018-04-14T09:03:44.637Z,944.98
2018-04-14T09:04:52.600Z,944.97
2018-04-14T09:06:00.682Z,944.95
2018-04-14T09:07:08.744Z,944.94
2018-04-14T09:08:16.805Z,944.93
2018-04-14T09:09:24.916Z,944.90
2018-04-14T09:10:32.952Z,944.84
2018-04-14T09:11:40.973Z,944.85
2018-04-14T09:12:49.076Z,944.78
2018-04-14T09:13:57.274Z,944.76
2018-04-14T09:15:05.228Z,944.72
2018-04-14T09:16:13.299Z,944.68
2018-04-14T09:17:21.338Z,944.71
2018-04-14T09:18:29.411Z,944.69
2018-04-14T09:19:37.536Z,944.70
2018-04-14T09:20:45.573Z,944.67
2018-04-14T09:21:53.620Z,944.69
2018-04-14T09:23:01.675Z,944.68
2018-04-14T09:24:09.764Z,944.68
2018-04-14T09:25:17.939Z,944.66
2018-04-14T09:26:25.939Z,944.66
2018-04-14T09:27:33.978Z,944.61
2018-04-14T09:28:42.044Z,944.61
2018-04-14T09:29:50.148Z,944.59
2018-04-14T09:30:58.289Z,944.58
2018-04-14T09:32:06.261Z,944.64
2018-04-14T09:33:14.329Z,944.64
2018-04-14T09:34:22.383Z,944.66
2018-04-14T09:35:30.459Z,944.66
2018-04-14T09:36:38.694Z,944.61
2018-04-14T09:37:46.573Z,944.60
2018-04-14T09:38:54.646Z,944.59
2018-04-14T09:40:02.718Z,944.66
2018-04-14T09:41:10.787Z,944.57
2018-04-14T09:42:18.931Z,944.57
2018-04-14T09:43:26.922Z,944.64
2018-04-14T09:44:35.002Z,944.62
2018-04-14T09:45:43.109Z,944.66
2018-04-14T09:46:51.100Z,944.64
2018-04-14T09:47:59.231Z,944.62
2018-04-14T09:49:07.264Z,944.59
2018-04-14T09:50:15.327Z,944.57
2018-04-14T09:51:23.404Z,944.60
2018-04-14T09:52:31.481Z,944.57
2018-04-14T09:53:39.528Z,944.61
2018-04-14T09:54:47.625Z,944.63
2018-04-14T09:55:55.678Z,944.57
2018-04-14T09:57:03.735Z,944.61
2018-04-14T09:58:11.900Z,944.61
2018-04-14T09:59:19.881Z,944.57
2018-04-14T10:00:27.950Z,944.55
2018-04-14T10:01:36.052Z,944.52
2018-04-14T10:02:44.084Z,944.52
2018-04-14T10:03:52.251Z,944.50
2018-04-14T10:05:00.212Z,944.49
2018-04-14T10:06:08.284Z,944.55
2018-04-14T10:07:16.340Z,944.51
2018-04-14T10:08:24.415Z,944.45
2018-04-14T10:09:32.538Z,944.48
2018-04-14T10:10:40.555Z,944.49
2018-04-14T10:11:48.601Z,944.46
2018-04-14T10:12:56.674Z,944.50
2018-04-14T10:14:04.756Z,944.49
2018-04-14T10:15:12.931Z,944.49
2018-04-14T10:16:20.888Z,944.46
2018-04-14T10:17:29.000Z,944.45
2018-04-14T10:18:37.014Z,944.43
2018-04-14T10:19:45.083Z,944.41
2018-04-14T10:20:53.267Z,944.41
2018-04-14T10:22:01.191Z,944.37
2018-04-14T10:23:09.279Z,944.38
2018-04-14T10:24:17.352Z,944.37
2018-04-14T10:25:25.428Z,944.35
2018-04-14T10:26:33.535Z,944.31
2018-04-14T10:27:41.522Z,944.31
2018-04-14T10:28:49.632Z,944.28
2018-04-14T10:29:57.708Z,944.26
2018-04-14T10:31:05.769Z,944.26
2018-04-14T10:32:13.944Z,944.29
2018-04-14T10:33:21.882Z,944.25
2018-04-14T10:34:29.961Z,944.22
2018-04-14T10:35:38.030Z,944.22
2018-04-14T10:36:46.108Z,944.16
2018-04-14T10:37:54.307Z,944.10
2018-04-14T10:39:02.217Z,944.08
2018-04-14T10:40:10.299Z,944.08
2018-04-14T10:41:18.349Z,944.05
2018-04-14T10:42:26.422Z,944.06
2018-04-14T10:43:34.614Z,943.99
2018-04-14T10:44:42.573Z,944.05
2018-04-14T10:45:50.632Z,944.03
2018-04-14T10:46:58.698Z,944.03
2018-04-14T10:48:06.966Z,944.02
2018-04-14T10:49:14.930Z,943.99
2018-04-14T10:50:22.889Z,944.05
2018-04-14T10:51:30.957Z,944.04
2018-04-14T10:52:39.034Z,944.08
2018-04-14T10:53:47.107Z,944.10
2018-04-14T10:54:55.234Z,944.08
2018-04-14T10:56:03.240Z,944.04
2018-04-14T10:57:11.291Z,944.01
2018-04-14T10:58:19.398Z,944.05
2018-04-14T10:59:27.442Z,944.00
2018-04-14T11:00:35.623Z,944.03
2018-04-14T11:01:43.571Z,944.00
2018-04-14T11:02:51.649Z,943.96
2018-04-14T11:03:59.702Z,943.97
2018-04-14T11:05:07.778Z,943.93
2018-04-14T11:06:15.941Z,943.97
2018-04-14T11:07:23.907Z,943.98
2018-04-14T11:08:31.983Z,943.92
2018-04-14T11:09:40.024Z,943.97
2018-04-14T11:10:48.108Z,943.91
2018-04-14T11:11:56.233Z,943.94
2018-04-14T11:13:04.248Z,943.93
2018-04-14T11:14:12.300Z,943.96
2018-04-14T11:15:20.392Z,943.96
2018-04-14T11:16:28.432Z,943.96
2018-04-14T11:17:36.564Z,944.01
2018-04-14T11:18:44.614Z,943.98
2018-04-14T11:19:52.647Z,943.96
2018-04-14T11:21:00.709Z,943.98
2018-04-14T11:22:08.900Z,943.96
2018-04-14T11:23:16.830Z,944.00
2018-04-14T11:24:24.905Z,943.97
2018-04-14T11:25:32.963Z,943.94
2018-04-14T11:26:41.012Z,944.01
2018-04-14T11:27:49.158Z,943.99
2018-04-14T11:28:57.174Z,944.00
2018-04-14T11:30:05.261Z,943.92
2018-04-14T11:31:13.355Z,943.94
2018-04-14T11:32:21.352Z,943.92
2018-04-14T11:33:29.556Z,943.86
2018-04-14T11:34:37.550Z,943.90
2018-04-14T11:35:45.584Z,943.84
2018-04-14T11:36:53.643Z,943.88
2018-04-14T11:38:01.702Z,943.88
2018-04-14T11:39:09.879Z,943.81
2018-04-14T11:40:17.835Z,943.81
2018-04-14T11:41:25.905Z,943.80
2018-04-14T11:42:33.988Z,943.76
2018-04-14T11:43:42.041Z,943.74
2018-04-14T11:44:50.227Z,943.72
2018-04-14T11:45:58.184Z,943.78
2018-04-14T11:47:06.265Z,943.73
2018-04-14T11:48:14.303Z,943.77
2018-04-14T11:49:22.374Z,943.78
2018-04-14T11:50:30.560Z,943.77
2018-04-14T11:51:38.535Z,943.78
2018-04-14T11:52:46.581Z,943.78
2018-04-14T11:53:54.647Z,943.79
2018-04-14T11:55:02.711Z,943.87
2018-04-14T11:56:10.957Z,943.84
2018-04-14T11:57:18.843Z,943.86
2018-04-14T11:58:26.909Z,943.89
2018-04-14T11:59:34.977Z,943.88
2018-04-14T12:00:43.165Z,943.90
2018-04-14T12:01:51.091Z,943.84
2018-04-14T12:02:59.179Z,943.84
2018-04-14T12:04:07.288Z,943.81
2018-04-14T12:05:15.323Z,943.89
2018-04-14T12:06:23.497Z,943.90
2018-04-14T12:07:31.422Z,943.86
2018-04-14T12:08:39.538Z,943.83
2018-04-14T12:09:47.608Z,943.86
2018-04-14T12:10:55.649Z,943.86
2018-04-14T12:12:03.766Z,943.82
2018-04-14T12:13:11.795Z,943.90
2018-04-14T12:14:19.850Z,943.89
2018-04-14T12:15:27.918Z,943.90
2018-04-14T12:16:35.983Z,943.86
2018-04-14T12:17:44.095Z,943.92
2018-04-14T12:18:52.107Z,943.87
2018-04-14T12:20:00.192Z,943.88
2018-04-14T12:21:08.248Z,943.89
2018-04-14T12:22:16.399Z,943.90
2018-04-14T12:23:24.392Z,943.92
2018-04-14T12:24:32.444Z,943.91
2018-04-14T12:25:40.515Z,943.94
2018-04-14T12:26:48.627Z,943.89
2018-04-14T12:27:56.687Z,943.93
2018-04-14T12:29:04.722Z,943.89
2018-04-14T12:30:12.788Z,943.91
2018-04-14T12:31:20.830Z,943.91
2018-04-14T12:32:28.931Z,943.96
2018-04-14T12:33:37.097Z,943.97
2018-04-14T12:34:45.058Z,943.99
2018-04-14T12:35:53.124Z,943.97
2018-04-14T12:37:01.160Z,943.97
2018-04-14T12:38:09.252Z,943.99
2018-04-14T12:39:17.421Z,943.94
2018-04-14T12:40:25.395Z,943.98
2018-04-14T12:41:33.459Z,944.01
2018-04-14T12:42:41.513Z,944.02
2018-04-14T12:43:49.585Z,943.94
2018-04-14T12:44:57.702Z,943.96
2018-04-14T12:46:05.711Z,943.94
2018-04-14T12:47:13.778Z,943.93
2018-04-14T12:48:21.846Z,943.90
2018-04-14T12:49:29.910Z,943.89
2018-04-14T12:50:38.101Z,943.89
2018-04-14T12:51:46.058Z,943.85
2018-04-14T12:52:54.167Z,943.84
2018-04-14T12:54:02.178Z,943.88
2018-04-14T12:55:10.252Z,943.86
2018-04-14T12:56:18.448Z,943.88
2018-04-14T12:57:26.394Z,943.88
2018-04-14T12:58:34.463Z,943.87
2018-04-14T12:59:42.518Z,943.88
2018-04-14T13:00:50.594Z,943.84
2018-04-14T13:01:58.695Z,943.88
2018-04-14T13:03:06.721Z,943.84
2018-04-14T13:04:14.780Z,943.84
2018-04-14T13:05:22.839Z,943.83
2018-04-14T13:06:30.891Z,943.83
2018-04-14T13:07:39.096Z,943.88
2018-04-14T13:08:47.049Z,943.86
2018-04-14T13:09:55.261Z,943.85
2018-04-14T13:11:03.188Z,943.84
2018-04-14T13:12:11.272Z,943.85
2018-04-14T13:13:19.362Z,943.82
2018-04-14T13:14:27.385Z,943.79
2018-04-14T13:15:35.449Z,943.81
2018-04-14T13:16:43.523Z,943.77
2018-04-14T13:17:51.615Z,943.76
2018-04-14T13:18:59.736Z,943.69
2018-04-14T13:20:07.724Z,943.75
2018-04-14T13:21:15.783Z,943.74
2018-04-14T13:22:23.898Z,943.77
2018-04-14T13:23:32.047Z,943.80
2018-04-14T13:24:39.996Z,943.70
2018-04-14T13:25:48.056Z,943.74
2018-04-14T13:26:56.118Z,943.68
2018-04-14T13:28:04.241Z,943.60
2018-04-14T13:29:12.249Z,943.53
2018-04-14T13:30:20.327Z,943.46
2018-04-14T13:31:28.376Z,943.47
2018-04-14T13:32:36.448Z,943.38
2018-04-14T13:33:44.626Z,943.34
2018-04-14T13:34:52.594Z,943.28
2018-04-14T13:36:00.666Z,943.21
2018-04-14T13:37:08.738Z,943.17
2018-04-14T13:38:16.806Z,943.15
2018-04-14T13:39:24.970Z,943.16
2018-04-14T13:40:32.929Z,943.13
2018-04-14T13:41:40.982Z,943.20
2018-04-14T13:42:49.071Z,943.22
2018-04-14T13:43:57.144Z,943.20
2018-04-14T13:45:05.301Z,943.17
2018-04-14T13:46:13.289Z,943.13
2018-04-14T13:47:21.317Z,943.12
2018-04-14T13:48:29.393Z,943.02
2018-04-14T13:49:37.468Z,943.09
2018-04-14T13:50:45.576Z,943.12
2018-04-14T13:51:53.638Z,943.09
2018-04-14T13:53:01.652Z,943.08
2018-04-14T13:54:09.737Z,943.13
2018-04-14T13:55:17.922Z,943.12
2018-04-14T13:56:25.907Z,943.12
2018-04-14T13:57:33.937Z,943.03
2018-04-14T13:58:42.008Z,943.02
2018-04-14T13:59:50.077Z,943.04
2018-04-14T14:00:58.167Z,943.06
2018-04-14T14:02:06.240Z,943.01
2018-04-14T14:03:14.266Z,942.98
2018-04-14T14:04:22.342Z,942.95
2018-04-14T14:05:30.405Z,942.91
2018-04-14T14:06:38.480Z,942.96
2018-04-14T14:07:46.594Z,942.99
2018-04-14T14:08:54.610Z,942.96